sensor_id;sensor_type;location;lat;lon;timestamp;P1;durP1;ratioP1;P2;durP2;ratioP2
11086;SDS011;5597;47.588;9.642;2022-09-21T00:00:51;3.47;;;2.93;;
11086;SDS011;5597;47.588;9.642;2022-09-21T00:03:17;5.33;;;2.80;;
11086;SDS011;5597;47.588;9.642;2022-09-21T00:05:43;5.17;;;2.90;;
11086;SDS011;5597;47.588;9.642;2022-09-21T00:08:09;3.67;;;2.90;;
11086;SDS011;5597;47.588;9.642;2022-09-21T00:10:37;6.00;;;2.77;;
11086;SDS011;5597;47.588;9.642;2022-09-21T00:13:03;5.40;;;2.93;;
11086;SDS011;5597;47.588;9.642;2022-09-21T00:15:30;4.30;;;2.87;;
11086;SDS011;5597;47.588;9.642;2022-09-21T00:17:57;3.63;;;2.53;;
11086;SDS011;5597;47.588;9.642;2022-09-21T00:20:23;5.20;;;3.10;;
11086;SDS011;5597;47.588;9.642;2022-09-21T00:22:50;4.23;;;2.70;;
11086;SDS011;5597;47.588;9.642;2022-09-21T00:25:16;3.90;;;2.80;;
11086;SDS011;5597;47.588;9.642;2022-09-21T00:27:43;5.47;;;2.87;;
11086;SDS011;5597;47.588;9.642;2022-09-21T00:30:10;5.57;;;2.70;;
11086;SDS011;5597;47.588;9.642;2022-09-21T00:32:36;3.47;;;3.07;;
11086;SDS011;5597;47.588;9.642;2022-09-21T00:35:03;3.83;;;3.10;;
11086;SDS011;5597;47.588;9.642;2022-09-21T00:37:31;3.63;;;3.00;;
11086;SDS011;5597;47.588;9.642;2022-09-21T00:39:57;3.83;;;3.10;;
11086;SDS011;5597;47.588;9.642;2022-09-21T00:42:27;4.90;;;3.17;;
11086;SDS011;5597;47.588;9.642;2022-09-21T00:44:55;4.87;;;3.37;;
11086;SDS011;5597;47.588;9.642;2022-09-21T00:47:21;6.20;;;3.47;;
11086;SDS011;5597;47.588;9.642;2022-09-21T00:49:51;5.43;;;3.37;;
11086;SDS011;5597;47.588;9.642;2022-09-21T00:52:19;4.20;;;3.27;;
11086;SDS011;5597;47.588;9.642;2022-09-21T00:54:50;7.83;;;3.50;;
11086;SDS011;5597;47.588;9.642;2022-09-21T00:57:22;5.00;;;3.20;;
11086;SDS011;5597;47.588;9.642;2022-09-21T00:59:50;6.03;;;3.57;;
11086;SDS011;5597;47.588;9.642;2022-09-21T01:02:19;5.13;;;3.27;;
11086;SDS011;5597;47.588;9.642;2022-09-21T01:04:46;4.70;;;2.97;;
11086;SDS011;5597;47.588;9.642;2022-09-21T01:07:13;4.77;;;3.13;;
11086;SDS011;5597;47.588;9.642;2022-09-21T01:09:42;6.97;;;3.50;;
11086;SDS011;5597;47.588;9.642;2022-09-21T01:12:22;5.57;;;3.70;;
11086;SDS011;5597;47.588;9.642;2022-09-21T01:18:04;4.47;;;3.37;;
11086;SDS011;5597;47.588;9.642;2022-09-21T01:29:09;7.80;;;3.87;;
11086;SDS011;5597;47.588;9.642;2022-09-21T01:32:05;5.27;;;4.27;;
11086;SDS011;5597;47.588;9.642;2022-09-21T01:34:37;4.10;;;3.63;;
11086;SDS011;5597;47.588;9.642;2022-09-21T01:37:13;4.57;;;3.70;;
11086;SDS011;5597;47.588;9.642;2022-09-21T01:39:52;5.40;;;3.60;;
11086;SDS011;5597;47.588;9.642;2022-09-21T01:42:22;5.60;;;3.63;;
11086;SDS011;5597;47.588;9.642;2022-09-21T01:44:50;4.53;;;3.47;;
11086;SDS011;5597;47.588;9.642;2022-09-21T01:47:16;7.33;;;3.73;;
11086;SDS011;5597;47.588;9.642;2022-09-21T01:49:46;7.17;;;3.60;;
11086;SDS011;5597;47.588;9.642;2022-09-21T01:52:23;4.47;;;3.70;;
11086;SDS011;5597;47.588;9.642;2022-09-21T01:55:14;5.97;;;3.57;;
11086;SDS011;5597;47.588;9.642;2022-09-21T01:57:54;4.43;;;3.30;;
11086;SDS011;5597;47.588;9.642;2022-09-21T02:00:31;4.27;;;3.60;;
11086;SDS011;5597;47.588;9.642;2022-09-21T02:03:03;6.83;;;3.97;;
11086;SDS011;5597;47.588;9.642;2022-09-21T02:05:33;4.67;;;3.77;;
11086;SDS011;5597;47.588;9.642;2022-09-21T02:08:00;6.17;;;3.63;;
11086;SDS011;5597;47.588;9.642;2022-09-21T02:10:31;5.97;;;3.77;;
11086;SDS011;5597;47.588;9.642;2022-09-21T02:13:00;5.57;;;3.63;;
11086;SDS011;5597;47.588;9.642;2022-09-21T02:16:17;6.20;;;3.70;;
11086;SDS011;5597;47.588;9.642;2022-09-21T02:24:07;6.80;;;3.60;;
11086;SDS011;5597;47.588;9.642;2022-09-21T02:30:16;4.47;;;3.20;;
11086;SDS011;5597;47.588;9.642;2022-09-21T02:32:48;5.07;;;3.50;;
11086;SDS011;5597;47.588;9.642;2022-09-21T02:43:49;5.07;;;3.53;;
11086;SDS011;5597;47.588;9.642;2022-09-21T02:46:45;7.17;;;4.00;;
11086;SDS011;5597;47.588;9.642;2022-09-21T02:49:18;5.17;;;3.83;;
11086;SDS011;5597;47.588;9.642;2022-09-21T02:51:51;5.80;;;3.47;;
11086;SDS011;5597;47.588;9.642;2022-09-21T02:54:21;4.70;;;3.30;;
11086;SDS011;5597;47.588;9.642;2022-09-21T02:56:51;3.67;;;3.00;;
11086;SDS011;5597;47.588;9.642;2022-09-21T02:59:18;3.73;;;3.30;;
11086;SDS011;5597;47.588;9.642;2022-09-21T03:01:47;6.43;;;3.47;;
11086;SDS011;5597;47.588;9.642;2022-09-21T03:04:13;5.53;;;3.43;;
11086;SDS011;5597;47.588;9.642;2022-09-21T03:06:39;4.27;;;3.30;;
11086;SDS011;5597;47.588;9.642;2022-09-21T03:09:05;3.73;;;3.33;;
11086;SDS011;5597;47.588;9.642;2022-09-21T03:11:31;5.03;;;3.10;;
11086;SDS011;5597;47.588;9.642;2022-09-21T03:13:57;7.10;;;3.60;;
11086;SDS011;5597;47.588;9.642;2022-09-21T03:16:23;4.23;;;3.00;;
11086;SDS011;5597;47.588;9.642;2022-09-21T03:18:49;2.83;;;2.50;;
11086;SDS011;5597;47.588;9.642;2022-09-21T03:21:15;3.07;;;2.77;;
11086;SDS011;5597;47.588;9.642;2022-09-21T03:23:40;3.70;;;2.80;;
11086;SDS011;5597;47.588;9.642;2022-09-21T03:26:06;2.77;;;2.40;;
11086;SDS011;5597;47.588;9.642;2022-09-21T03:28:32;3.20;;;2.90;;
11086;SDS011;5597;47.588;9.642;2022-09-21T03:30:58;3.73;;;3.03;;
11086;SDS011;5597;47.588;9.642;2022-09-21T03:33:23;5.10;;;3.17;;
11086;SDS011;5597;47.588;9.642;2022-09-21T03:35:49;4.20;;;3.27;;
11086;SDS011;5597;47.588;9.642;2022-09-21T03:38:16;3.80;;;3.03;;
11086;SDS011;5597;47.588;9.642;2022-09-21T03:40:45;5.10;;;3.20;;
11086;SDS011;5597;47.588;9.642;2022-09-21T03:43:12;3.53;;;2.93;;
11086;SDS011;5597;47.588;9.642;2022-09-21T03:45:37;3.40;;;3.10;;
11086;SDS011;5597;47.588;9.642;2022-09-21T03:48:06;3.10;;;2.80;;
11086;SDS011;5597;47.588;9.642;2022-09-21T03:50:32;3.87;;;3.03;;
11086;SDS011;5597;47.588;9.642;2022-09-21T03:52:58;4.83;;;3.40;;
11086;SDS011;5597;47.588;9.642;2022-09-21T03:55:24;5.80;;;3.43;;
11086;SDS011;5597;47.588;9.642;2022-09-21T03:57:49;4.00;;;3.30;;
11086;SDS011;5597;47.588;9.642;2022-09-21T04:00:15;5.10;;;3.50;;
11086;SDS011;5597;47.588;9.642;2022-09-21T04:02:41;6.43;;;4.00;;
11086;SDS011;5597;47.588;9.642;2022-09-21T04:05:07;4.77;;;3.40;;
11086;SDS011;5597;47.588;9.642;2022-09-21T04:07:34;3.20;;;2.90;;
11086;SDS011;5597;47.588;9.642;2022-09-21T04:10:01;5.70;;;3.60;;
11086;SDS011;5597;47.588;9.642;2022-09-21T04:12:32;3.80;;;3.37;;
11086;SDS011;5597;47.588;9.642;2022-09-21T04:14:59;6.37;;;4.13;;
11086;SDS011;5597;47.588;9.642;2022-09-21T04:17:25;6.30;;;4.00;;
11086;SDS011;5597;47.588;9.642;2022-09-21T04:19:51;5.70;;;3.20;;
11086;SDS011;5597;47.588;9.642;2022-09-21T04:22:17;4.63;;;3.63;;
11086;SDS011;5597;47.588;9.642;2022-09-21T04:24:43;5.33;;;3.67;;
11086;SDS011;5597;47.588;9.642;2022-09-21T04:27:09;5.83;;;3.67;;
11086;SDS011;5597;47.588;9.642;2022-09-21T04:29:35;4.50;;;3.50;;
11086;SDS011;5597;47.588;9.642;2022-09-21T04:32:01;5.87;;;3.83;;
11086;SDS011;5597;47.588;9.642;2022-09-21T04:34:27;3.97;;;3.50;;
11086;SDS011;5597;47.588;9.642;2022-09-21T04:36:55;7.63;;;4.37;;
11086;SDS011;5597;47.588;9.642;2022-09-21T04:39:21;4.53;;;3.73;;
11086;SDS011;5597;47.588;9.642;2022-09-21T04:41:47;4.90;;;3.60;;
11086;SDS011;5597;47.588;9.642;2022-09-21T04:44:14;4.30;;;3.67;;
11086;SDS011;5597;47.588;9.642;2022-09-21T04:46:39;4.87;;;3.40;;
11086;SDS011;5597;47.588;9.642;2022-09-21T04:49:06;4.57;;;3.63;;
11086;SDS011;5597;47.588;9.642;2022-09-21T04:51:32;3.47;;;3.17;;
11086;SDS011;5597;47.588;9.642;2022-09-21T04:53:58;5.40;;;3.70;;
11086;SDS011;5597;47.588;9.642;2022-09-21T04:56:24;4.13;;;3.73;;
11086;SDS011;5597;47.588;9.642;2022-09-21T04:58:49;6.20;;;3.90;;
11086;SDS011;5597;47.588;9.642;2022-09-21T05:01:15;5.13;;;3.70;;
11086;SDS011;5597;47.588;9.642;2022-09-21T05:03:40;5.73;;;3.73;;
11086;SDS011;5597;47.588;9.642;2022-09-21T05:06:06;6.30;;;3.57;;
11086;SDS011;5597;47.588;9.642;2022-09-21T05:08:33;4.90;;;3.70;;
11086;SDS011;5597;47.588;9.642;2022-09-21T05:11:17;6.33;;;3.47;;
11086;SDS011;5597;47.588;9.642;2022-09-21T05:13:44;6.20;;;3.77;;
11086;SDS011;5597;47.588;9.642;2022-09-21T05:16:10;4.00;;;3.17;;
11086;SDS011;5597;47.588;9.642;2022-09-21T05:18:35;5.27;;;3.70;;
11086;SDS011;5597;47.588;9.642;2022-09-21T05:21:01;7.10;;;4.00;;
11086;SDS011;5597;47.588;9.642;2022-09-21T05:23:28;5.80;;;4.10;;
11086;SDS011;5597;47.588;9.642;2022-09-21T05:25:55;5.03;;;4.13;;
11086;SDS011;5597;47.588;9.642;2022-09-21T05:28:24;7.03;;;4.27;;
11086;SDS011;5597;47.588;9.642;2022-09-21T05:31:37;4.57;;;3.90;;
11086;SDS011;5597;47.588;9.642;2022-09-21T05:33:53;6.23;;;3.60;;
11086;SDS011;5597;47.588;9.642;2022-09-21T05:36:47;4.73;;;4.00;;
11086;SDS011;5597;47.588;9.642;2022-09-21T05:39:21;6.40;;;3.60;;
11086;SDS011;5597;47.588;9.642;2022-09-21T05:41:47;7.47;;;4.37;;
11086;SDS011;5597;47.588;9.642;2022-09-21T05:44:13;5.60;;;4.20;;
11086;SDS011;5597;47.588;9.642;2022-09-21T05:46:51;6.70;;;3.83;;
11086;SDS011;5597;47.588;9.642;2022-09-21T05:49:54;5.83;;;4.00;;
11086;SDS011;5597;47.588;9.642;2022-09-21T05:52:27;4.53;;;3.70;;
11086;SDS011;5597;47.588;9.642;2022-09-21T05:58:19;5.63;;;3.90;;
11086;SDS011;5597;47.588;9.642;2022-09-21T06:00:47;4.30;;;3.67;;
11086;SDS011;5597;47.588;9.642;2022-09-21T06:03:29;6.80;;;4.43;;
11086;SDS011;5597;47.588;9.642;2022-09-21T06:05:56;4.37;;;3.73;;
11086;SDS011;5597;47.588;9.642;2022-09-21T06:08:23;5.27;;;4.13;;
11086;SDS011;5597;47.588;9.642;2022-09-21T06:10:49;4.73;;;3.37;;
11086;SDS011;5597;47.588;9.642;2022-09-21T06:13:15;5.47;;;3.60;;
11086;SDS011;5597;47.588;9.642;2022-09-21T06:15:41;5.17;;;3.67;;
11086;SDS011;5597;47.588;9.642;2022-09-21T06:18:07;4.60;;;3.43;;
11086;SDS011;5597;47.588;9.642;2022-09-21T06:20:33;3.80;;;3.30;;
11086;SDS011;5597;47.588;9.642;2022-09-21T06:23:00;5.17;;;3.60;;
11086;SDS011;5597;47.588;9.642;2022-09-21T06:25:29;3.83;;;3.07;;
11086;SDS011;5597;47.588;9.642;2022-09-21T06:27:56;7.17;;;3.70;;
11086;SDS011;5597;47.588;9.642;2022-09-21T06:30:32;4.57;;;3.47;;
11086;SDS011;5597;47.588;9.642;2022-09-21T06:32:59;5.13;;;3.17;;
11086;SDS011;5597;47.588;9.642;2022-09-21T06:35:26;4.70;;;3.10;;
11086;SDS011;5597;47.588;9.642;2022-09-21T06:37:56;4.87;;;3.13;;
11086;SDS011;5597;47.588;9.642;2022-09-21T06:40:23;3.70;;;2.70;;
11086;SDS011;5597;47.588;9.642;2022-09-21T06:42:49;4.37;;;2.93;;
11086;SDS011;5597;47.588;9.642;2022-09-21T06:45:20;4.33;;;3.00;;
11086;SDS011;5597;47.588;9.642;2022-09-21T06:47:46;4.57;;;3.10;;
11086;SDS011;5597;47.588;9.642;2022-09-21T06:50:12;4.83;;;3.07;;
11086;SDS011;5597;47.588;9.642;2022-09-21T06:52:38;4.77;;;2.90;;
11086;SDS011;5597;47.588;9.642;2022-09-21T06:55:04;4.10;;;2.90;;
11086;SDS011;5597;47.588;9.642;2022-09-21T06:57:30;3.00;;;2.57;;
11086;SDS011;5597;47.588;9.642;2022-09-21T06:59:56;4.60;;;2.77;;
11086;SDS011;5597;47.588;9.642;2022-09-21T07:02:21;4.60;;;2.70;;
11086;SDS011;5597;47.588;9.642;2022-09-21T07:04:47;6.97;;;3.10;;
11086;SDS011;5597;47.588;9.642;2022-09-21T07:07:12;3.20;;;2.40;;
11086;SDS011;5597;47.588;9.642;2022-09-21T07:09:38;6.77;;;2.73;;
11086;SDS011;5597;47.588;9.642;2022-09-21T07:12:04;4.93;;;2.80;;
11086;SDS011;5597;47.588;9.642;2022-09-21T07:14:31;4.07;;;2.90;;
11086;SDS011;5597;47.588;9.642;2022-09-21T07:16:56;4.23;;;3.00;;
11086;SDS011;5597;47.588;9.642;2022-09-21T07:19:22;3.20;;;2.60;;
11086;SDS011;5597;47.588;9.642;2022-09-21T07:21:47;2.77;;;2.37;;
11086;SDS011;5597;47.588;9.642;2022-09-21T07:24:13;4.87;;;2.70;;
11086;SDS011;5597;47.588;9.642;2022-09-21T07:26:39;3.47;;;2.50;;
11086;SDS011;5597;47.588;9.642;2022-09-21T07:29:04;2.90;;;2.60;;
11086;SDS011;5597;47.588;9.642;2022-09-21T07:31:30;4.60;;;2.77;;
11086;SDS011;5597;47.588;9.642;2022-09-21T07:33:56;6.53;;;2.70;;
11086;SDS011;5597;47.588;9.642;2022-09-21T07:36:23;2.90;;;2.40;;
11086;SDS011;5597;47.588;9.642;2022-09-21T07:38:48;2.90;;;2.43;;
11086;SDS011;5597;47.588;9.642;2022-09-21T07:41:14;3.03;;;2.40;;
11086;SDS011;5597;47.588;9.642;2022-09-21T07:43:40;3.07;;;2.33;;
11086;SDS011;5597;47.588;9.642;2022-09-21T07:46:06;3.03;;;2.10;;
11086;SDS011;5597;47.588;9.642;2022-09-21T07:48:34;4.00;;;2.50;;
11086;SDS011;5597;47.588;9.642;2022-09-21T07:51:00;3.33;;;2.13;;
11086;SDS011;5597;47.588;9.642;2022-09-21T07:53:28;3.50;;;2.13;;
11086;SDS011;5597;47.588;9.642;2022-09-21T07:55:59;4.53;;;2.20;;
11086;SDS011;5597;47.588;9.642;2022-09-21T07:58:32;3.20;;;1.80;;
11086;SDS011;5597;47.588;9.642;2022-09-21T08:01:17;2.80;;;1.87;;
11086;SDS011;5597;47.588;9.642;2022-09-21T08:03:43;4.77;;;2.10;;
11086;SDS011;5597;47.588;9.642;2022-09-21T08:06:08;2.97;;;2.10;;
11086;SDS011;5597;47.588;9.642;2022-09-21T08:08:34;3.37;;;1.93;;
11086;SDS011;5597;47.588;9.642;2022-09-21T08:11:03;2.83;;;2.10;;
11086;SDS011;5597;47.588;9.642;2022-09-21T08:13:29;3.33;;;1.90;;
11086;SDS011;5597;47.588;9.642;2022-09-21T08:15:59;3.37;;;2.10;;
11086;SDS011;5597;47.588;9.642;2022-09-21T08:18:25;4.30;;;1.90;;
11086;SDS011;5597;47.588;9.642;2022-09-21T08:20:55;3.50;;;1.73;;
11086;SDS011;5597;47.588;9.642;2022-09-21T08:23:25;2.77;;;1.73;;
11086;SDS011;5597;47.588;9.642;2022-09-21T08:26:02;3.70;;;2.10;;
11086;SDS011;5597;47.588;9.642;2022-09-21T08:28:32;2.73;;;1.53;;
11086;SDS011;5597;47.588;9.642;2022-09-21T08:31:05;2.77;;;1.70;;
11086;SDS011;5597;47.588;9.642;2022-09-21T08:33:35;2.97;;;1.83;;
11086;SDS011;5597;47.588;9.642;2022-09-21T08:36:01;2.10;;;1.50;;
11086;SDS011;5597;47.588;9.642;2022-09-21T08:38:32;3.00;;;1.40;;
11086;SDS011;5597;47.588;9.642;2022-09-21T08:40:59;2.30;;;1.50;;
11086;SDS011;5597;47.588;9.642;2022-09-21T08:43:28;2.70;;;1.67;;
11086;SDS011;5597;47.588;9.642;2022-09-21T08:46:02;2.57;;;1.80;;
11086;SDS011;5597;47.588;9.642;2022-09-21T08:48:38;3.70;;;1.70;;
11086;SDS011;5597;47.588;9.642;2022-09-21T08:51:10;2.60;;;1.53;;
11086;SDS011;5597;47.588;9.642;2022-09-21T08:53:43;2.50;;;1.50;;
11086;SDS011;5597;47.588;9.642;2022-09-21T08:56:13;5.30;;;1.80;;
11086;SDS011;5597;47.588;9.642;2022-09-21T08:58:40;2.33;;;1.43;;
11086;SDS011;5597;47.588;9.642;2022-09-21T09:06:58;3.93;;;1.70;;
11086;SDS011;5597;47.588;9.642;2022-09-21T09:09:41;3.30;;;1.70;;
11086;SDS011;5597;47.588;9.642;2022-09-21T09:12:39;1.70;;;1.33;;
11086;SDS011;5597;47.588;9.642;2022-09-21T09:20:59;2.57;;;1.30;;
11086;SDS011;5597;47.588;9.642;2022-09-21T09:23:43;3.23;;;1.57;;
11086;SDS011;5597;47.588;9.642;2022-09-21T09:26:17;2.27;;;1.23;;
11086;SDS011;5597;47.588;9.642;2022-09-21T09:29:06;3.20;;;1.50;;
11086;SDS011;5597;47.588;9.642;2022-09-21T09:31:40;1.27;;;1.10;;
11086;SDS011;5597;47.588;9.642;2022-09-21T09:36:37;1.80;;;1.10;;
11086;SDS011;5597;47.588;9.642;2022-09-21T09:39:12;3.10;;;1.10;;
11086;SDS011;5597;47.588;9.642;2022-09-21T09:52:47;2.63;;;0.97;;
11086;SDS011;5597;47.588;9.642;2022-09-21T09:55:24;1.77;;;1.47;;
11086;SDS011;5597;47.588;9.642;2022-09-21T09:57:54;1.30;;;0.90;;
11086;SDS011;5597;47.588;9.642;2022-09-21T10:00:21;1.30;;;1.00;;
11086;SDS011;5597;47.588;9.642;2022-09-21T10:02:53;2.20;;;1.20;;
11086;SDS011;5597;47.588;9.642;2022-09-21T10:05:21;3.90;;;1.60;;
11086;SDS011;5597;47.588;9.642;2022-09-21T10:07:49;1.77;;;1.33;;
11086;SDS011;5597;47.588;9.642;2022-09-21T10:21:18;0.97;;;0.87;;
11086;SDS011;5597;47.588;9.642;2022-09-21T10:23:48;1.10;;;0.80;;
11086;SDS011;5597;47.588;9.642;2022-09-21T10:26:17;1.43;;;0.80;;
11086;SDS011;5597;47.588;9.642;2022-09-21T10:31:50;1.10;;;1.00;;
11086;SDS011;5597;47.588;9.642;2022-09-21T10:34:20;1.77;;;1.00;;
11086;SDS011;5597;47.588;9.642;2022-09-21T10:36:50;1.47;;;1.10;;
11086;SDS011;5597;47.588;9.642;2022-09-21T10:44:40;1.77;;;0.80;;
11086;SDS011;5597;47.588;9.642;2022-09-21T10:47:15;1.77;;;0.83;;
11086;SDS011;5597;47.588;9.642;2022-09-21T10:49:49;2.10;;;1.10;;
11086;SDS011;5597;47.588;9.642;2022-09-21T10:52:19;1.73;;;1.00;;
11086;SDS011;5597;47.588;9.642;2022-09-21T10:54:50;1.13;;;0.80;;
11086;SDS011;5597;47.588;9.642;2022-09-21T10:57:21;1.73;;;1.00;;
11086;SDS011;5597;47.588;9.642;2022-09-21T10:59:48;1.30;;;0.90;;
11086;SDS011;5597;47.588;9.642;2022-09-21T11:02:24;1.60;;;0.83;;
11086;SDS011;5597;47.588;9.642;2022-09-21T11:05:14;1.77;;;1.20;;
11086;SDS011;5597;47.588;9.642;2022-09-21T11:10:32;2.70;;;0.90;;
11086;SDS011;5597;47.588;9.642;2022-09-21T11:16:15;2.47;;;1.07;;
11086;SDS011;5597;47.588;9.642;2022-09-21T11:19:01;1.87;;;0.97;;
11086;SDS011;5597;47.588;9.642;2022-09-21T11:21:40;0.90;;;0.80;;
11086;SDS011;5597;47.588;9.642;2022-09-21T11:27:13;1.93;;;1.00;;
11086;SDS011;5597;47.588;9.642;2022-09-21T11:30:01;2.20;;;1.00;;
11086;SDS011;5597;47.588;9.642;2022-09-21T11:35:17;1.73;;;1.00;;
11086;SDS011;5597;47.588;9.642;2022-09-21T11:38:16;1.23;;;0.83;;
11086;SDS011;5597;47.588;9.642;2022-09-21T11:41:01;2.80;;;1.13;;
11086;SDS011;5597;47.588;9.642;2022-09-21T11:49:07;1.57;;;0.80;;
11086;SDS011;5597;47.588;9.642;2022-09-21T12:01:00;1.63;;;0.90;;
11086;SDS011;5597;47.588;9.642;2022-09-21T12:03:37;1.27;;;0.90;;
11086;SDS011;5597;47.588;9.642;2022-09-21T12:06:47;2.83;;;0.87;;
11086;SDS011;5597;47.588;9.642;2022-09-21T12:12:10;1.53;;;0.73;;
11086;SDS011;5597;47.588;9.642;2022-09-21T12:22:43;1.77;;;1.00;;
11086;SDS011;5597;47.588;9.642;2022-09-21T12:25:13;1.50;;;0.90;;
11086;SDS011;5597;47.588;9.642;2022-09-21T12:30:21;1.10;;;1.00;;
11086;SDS011;5597;47.588;9.642;2022-09-21T12:32:53;3.00;;;1.07;;
11086;SDS011;5597;47.588;9.642;2022-09-21T12:38:27;1.57;;;0.90;;
11086;SDS011;5597;47.588;9.642;2022-09-21T12:41:00;2.60;;;1.13;;
11086;SDS011;5597;47.588;9.642;2022-09-21T12:43:52;1.93;;;1.10;;
11086;SDS011;5597;47.588;9.642;2022-09-21T12:46:36;1.13;;;0.87;;
11086;SDS011;5597;47.588;9.642;2022-09-21T12:49:10;3.83;;;1.10;;
11086;SDS011;5597;47.588;9.642;2022-09-21T12:51:43;1.40;;;1.10;;
11086;SDS011;5597;47.588;9.642;2022-09-21T12:57:35;2.17;;;1.03;;
11086;SDS011;5597;47.588;9.642;2022-09-21T13:00:21;1.20;;;0.90;;
11086;SDS011;5597;47.588;9.642;2022-09-21T13:10:41;2.23;;;1.10;;
11086;SDS011;5597;47.588;9.642;2022-09-21T13:13:27;1.87;;;1.17;;
11086;SDS011;5597;47.588;9.642;2022-09-21T13:16:30;0.90;;;0.80;;
11086;SDS011;5597;47.588;9.642;2022-09-21T13:18:58;1.60;;;0.90;;
11086;SDS011;5597;47.588;9.642;2022-09-21T13:21:26;0.80;;;0.80;;
11086;SDS011;5597;47.588;9.642;2022-09-21T13:24:01;2.53;;;1.07;;
11086;SDS011;5597;47.588;9.642;2022-09-21T13:47:29;2.30;;;0.97;;
11086;SDS011;5597;47.588;9.642;2022-09-21T13:49:59;3.13;;;1.53;;
11086;SDS011;5597;47.588;9.642;2022-09-21T13:52:47;2.93;;;1.00;;
11086;SDS011;5597;47.588;9.642;2022-09-21T13:55:25;1.83;;;1.00;;
11086;SDS011;5597;47.588;9.642;2022-09-21T13:57:54;2.23;;;0.70;;
11086;SDS011;5597;47.588;9.642;2022-09-21T14:00:33;2.37;;;1.00;;
11086;SDS011;5597;47.588;9.642;2022-09-21T14:06:05;1.83;;;0.80;;
11086;SDS011;5597;47.588;9.642;2022-09-21T14:08:37;2.20;;;1.20;;
11086;SDS011;5597;47.588;9.642;2022-09-21T14:11:09;1.43;;;0.80;;
11086;SDS011;5597;47.588;9.642;2022-09-21T14:13:42;1.57;;;1.00;;
11086;SDS011;5597;47.588;9.642;2022-09-21T14:16:44;1.90;;;0.90;;
11086;SDS011;5597;47.588;9.642;2022-09-21T14:24:46;1.27;;;0.73;;
11086;SDS011;5597;47.588;9.642;2022-09-21T14:30:15;1.70;;;0.80;;
11086;SDS011;5597;47.588;9.642;2022-09-21T14:35:25;1.73;;;0.87;;
11086;SDS011;5597;47.588;9.642;2022-09-21T14:37:57;0.80;;;0.80;;
11086;SDS011;5597;47.588;9.642;2022-09-21T14:40:35;1.43;;;0.70;;
11086;SDS011;5597;47.588;9.642;2022-09-21T14:43:05;2.17;;;1.00;;
11086;SDS011;5597;47.588;9.642;2022-09-21T14:45:44;1.07;;;0.80;;
11086;SDS011;5597;47.588;9.642;2022-09-21T14:51:34;1.13;;;0.80;;
11086;SDS011;5597;47.588;9.642;2022-09-21T14:54:22;0.83;;;0.73;;
11086;SDS011;5597;47.588;9.642;2022-09-21T15:02:31;2.47;;;0.90;;
11086;SDS011;5597;47.588;9.642;2022-09-21T15:10:53;1.17;;;0.70;;
11086;SDS011;5597;47.588;9.642;2022-09-21T15:19:25;1.37;;;0.80;;
11086;SDS011;5597;47.588;9.642;2022-09-21T15:21:53;2.70;;;1.10;;
11086;SDS011;5597;47.588;9.642;2022-09-21T15:24:23;0.90;;;0.70;;
11086;SDS011;5597;47.588;9.642;2022-09-21T15:26:51;1.80;;;0.90;;
11086;SDS011;5597;47.588;9.642;2022-09-21T15:29:24;1.80;;;0.70;;
11086;SDS011;5597;47.588;9.642;2022-09-21T15:31:51;2.20;;;0.80;;
11086;SDS011;5597;47.588;9.642;2022-09-21T15:34:18;1.57;;;0.70;;
11086;SDS011;5597;47.588;9.642;2022-09-21T15:36:43;2.03;;;0.80;;
11086;SDS011;5597;47.588;9.642;2022-09-21T15:39:46;0.57;;;0.53;;
11086;SDS011;5597;47.588;9.642;2022-09-21T15:44:34;1.23;;;0.70;;
11086;SDS011;5597;47.588;9.642;2022-09-21T15:47:06;1.37;;;0.73;;
11086;SDS011;5597;47.588;9.642;2022-09-21T15:49:36;1.77;;;0.77;;
11086;SDS011;5597;47.588;9.642;2022-09-21T15:52:03;0.70;;;0.70;;
11086;SDS011;5597;47.588;9.642;2022-09-21T15:57:00;28.93;;;4.27;;
11086;SDS011;5597;47.588;9.642;2022-09-21T15:59:31;32.90;;;5.07;;
11086;SDS011;5597;47.588;9.642;2022-09-21T16:01:59;31.77;;;3.87;;
11086;SDS011;5597;47.588;9.642;2022-09-21T16:04:34;72.27;;;9.77;;
11086;SDS011;5597;47.588;9.642;2022-09-21T16:07:04;2.07;;;1.10;;
11086;SDS011;5597;47.588;9.642;2022-09-21T16:09:38;1.83;;;0.80;;
11086;SDS011;5597;47.588;9.642;2022-09-21T16:14:48;1.53;;;0.80;;
11086;SDS011;5597;47.588;9.642;2022-09-21T16:17:21;2.03;;;0.83;;
11086;SDS011;5597;47.588;9.642;2022-09-21T16:22:15;1.13;;;0.70;;
11086;SDS011;5597;47.588;9.642;2022-09-21T16:24:52;1.00;;;0.60;;
11086;SDS011;5597;47.588;9.642;2022-09-21T16:27:25;1.70;;;0.80;;
11086;SDS011;5597;47.588;9.642;2022-09-21T16:29:53;1.77;;;0.90;;
11086;SDS011;5597;47.588;9.642;2022-09-21T16:32:26;1.53;;;0.70;;
11086;SDS011;5597;47.588;9.642;2022-09-21T16:37:51;1.07;;;0.70;;
11086;SDS011;5597;47.588;9.642;2022-09-21T16:40:21;1.60;;;0.80;;
11086;SDS011;5597;47.588;9.642;2022-09-21T16:42:47;3.63;;;0.80;;
11086;SDS011;5597;47.588;9.642;2022-09-21T16:45:15;1.73;;;0.90;;
11086;SDS011;5597;47.588;9.642;2022-09-21T16:47:48;1.23;;;0.80;;
11086;SDS011;5597;47.588;9.642;2022-09-21T16:50:14;1.30;;;1.00;;
11086;SDS011;5597;47.588;9.642;2022-09-21T16:52:42;1.20;;;0.90;;
11086;SDS011;5597;47.588;9.642;2022-09-21T16:55:12;1.60;;;0.80;;
11086;SDS011;5597;47.588;9.642;2022-09-21T16:57:39;2.00;;;1.10;;
11086;SDS011;5597;47.588;9.642;2022-09-21T17:00:09;2.40;;;1.70;;
11086;SDS011;5597;47.588;9.642;2022-09-21T17:02:37;0.80;;;0.70;;
11086;SDS011;5597;47.588;9.642;2022-09-21T17:05:09;0.70;;;0.70;;
11086;SDS011;5597;47.588;9.642;2022-09-21T17:07:35;0.83;;;0.70;;
11086;SDS011;5597;47.588;9.642;2022-09-21T17:10:04;1.50;;;0.90;;
11086;SDS011;5597;47.588;9.642;2022-09-21T17:12:36;1.67;;;0.90;;
11086;SDS011;5597;47.588;9.642;2022-09-21T17:15:03;1.10;;;0.90;;
11086;SDS011;5597;47.588;9.642;2022-09-21T17:17:31;1.10;;;0.90;;
11086;SDS011;5597;47.588;9.642;2022-09-21T17:19:57;2.20;;;0.80;;
11086;SDS011;5597;47.588;9.642;2022-09-21T17:22:30;1.77;;;0.80;;
11086;SDS011;5597;47.588;9.642;2022-09-21T17:24:56;3.67;;;1.23;;
11086;SDS011;5597;47.588;9.642;2022-09-21T17:27:23;1.10;;;0.80;;
11086;SDS011;5597;47.588;9.642;2022-09-21T17:29:50;1.00;;;0.90;;
11086;SDS011;5597;47.588;9.642;2022-09-21T17:32:19;1.30;;;0.90;;
11086;SDS011;5597;47.588;9.642;2022-09-21T17:34:46;1.40;;;0.87;;
11086;SDS011;5597;47.588;9.642;2022-09-21T17:37:33;2.10;;;0.93;;
11086;SDS011;5597;47.588;9.642;2022-09-21T17:40:00;3.80;;;0.97;;
11086;SDS011;5597;47.588;9.642;2022-09-21T17:42:26;1.00;;;0.90;;
11086;SDS011;5597;47.588;9.642;2022-09-21T17:49:52;1.10;;;0.83;;
11086;SDS011;5597;47.588;9.642;2022-09-21T17:52:20;1.10;;;1.00;;
11086;SDS011;5597;47.588;9.642;2022-09-21T17:55:06;2.03;;;0.90;;
11086;SDS011;5597;47.588;9.642;2022-09-21T17:57:45;1.37;;;0.93;;
11086;SDS011;5597;47.588;9.642;2022-09-21T18:00:23;2.37;;;0.80;;
11086;SDS011;5597;47.588;9.642;2022-09-21T18:03:02;1.20;;;1.10;;
11086;SDS011;5597;47.588;9.642;2022-09-21T18:05:29;1.63;;;1.10;;
11086;SDS011;5597;47.588;9.642;2022-09-21T18:07:55;1.37;;;1.00;;
11086;SDS011;5597;47.588;9.642;2022-09-21T18:10:22;2.27;;;1.07;;
11086;SDS011;5597;47.588;9.642;2022-09-21T18:21:03;2.47;;;0.93;;
11086;SDS011;5597;47.588;9.642;2022-09-21T18:26:28;1.40;;;0.90;;
11086;SDS011;5597;47.588;9.642;2022-09-21T18:28:54;1.87;;;1.40;;
11086;SDS011;5597;47.588;9.642;2022-09-21T18:36:41;2.00;;;1.13;;
11086;SDS011;5597;47.588;9.642;2022-09-21T18:39:40;2.73;;;1.17;;
11086;SDS011;5597;47.588;9.642;2022-09-21T18:42:36;1.93;;;1.10;;
11086;SDS011;5597;47.588;9.642;2022-09-21T18:45:21;2.03;;;1.07;;
11086;SDS011;5597;47.588;9.642;2022-09-21T18:53:46;2.00;;;1.27;;
11086;SDS011;5597;47.588;9.642;2022-09-21T18:56:11;1.97;;;1.70;;
11086;SDS011;5597;47.588;9.642;2022-09-21T18:58:37;2.23;;;1.17;;
11086;SDS011;5597;47.588;9.642;2022-09-21T19:01:04;2.57;;;1.30;;
11086;SDS011;5597;47.588;9.642;2022-09-21T19:03:30;4.07;;;1.60;;
11086;SDS011;5597;47.588;9.642;2022-09-21T19:08:30;4.17;;;1.20;;
11086;SDS011;5597;47.588;9.642;2022-09-21T19:11:12;1.43;;;1.20;;
11086;SDS011;5597;47.588;9.642;2022-09-21T19:13:50;2.40;;;1.17;;